Terminal Aerodrome Forecast
Issued by NWS Sioux Falls, SD

Home | Current Version | Previous Version | Graphics & Text | Print | Product List | Glossary On
Versions: 1 2 3 4 5 6 7 8 9 10 11 12
000
FTUS43 KFSD 091121
TAFFSD
TAF
KFSD 091121Z 0912/1012 31003KT P6SM BKN150
     FM091600 VRB03KT P6SM BKN080
     FM091800 17005KT P6SM BKN070
     FM092200 14003KT P6SM -SN OVC020
      TEMPO 0922/1002 5SM -SN
     FM100500 07005KT P6SM OVC025=

USA.gov is the U.S. government's official web portal to all federal, state and local government web resources and services.